createdAt,value
2023-01-08T00:01:16.940Z,10.70
2023-01-08T00:03:47.951Z,10.60
2023-01-08T00:06:21.752Z,10.50
2023-01-08T00:08:53.088Z,10.50
2023-01-08T00:11:23.681Z,10.50
2023-01-08T00:13:54.253Z,10.50
2023-01-08T00:16:24.891Z,10.40
2023-01-08T00:18:55.554Z,10.30
2023-01-08T00:21:26.113Z,10.10
2023-01-08T00:23:56.776Z,9.90
2023-01-08T00:26:27.483Z,10.00
2023-01-08T00:28:58.348Z,10.20
2023-01-08T00:31:29.036Z,10.00
2023-01-08T00:33:59.722Z,9.60
2023-01-08T00:36:30.419Z,9.70
2023-01-08T00:39:01.655Z,9.90
2023-01-08T00:41:32.257Z,9.90
2023-01-08T00:44:02.936Z,10.20
2023-01-08T00:46:33.617Z,10.20
2023-01-08T00:49:04.480Z,10.20
2023-01-08T00:51:35.089Z,10.30
2023-01-08T00:54:05.904Z,10.30
2023-01-08T00:56:36.465Z,10.30
2023-01-08T00:59:07.197Z,10.20
2023-01-08T01:01:38.074Z,10.60
2023-01-08T01:04:09.086Z,10.60
2023-01-08T01:06:39.699Z,10.80
2023-01-08T01:09:13.514Z,10.80
2023-01-08T01:11:44.117Z,10.60
2023-01-08T01:14:14.855Z,10.60
2023-01-08T01:16:47.169Z,10.60
2023-01-08T01:19:18.979Z,10.70
2023-01-08T01:21:49.585Z,10.80
2023-01-08T01:24:21.911Z,10.90
2023-01-08T01:26:52.660Z,10.60
2023-01-08T01:29:23.333Z,10.80
2023-01-08T01:31:54.128Z,10.60
2023-01-08T01:34:24.893Z,10.50
2023-01-08T01:36:55.518Z,10.50
2023-01-08T01:39:26.099Z,10.40
2023-01-08T01:41:56.659Z,10.20
2023-01-08T01:47:23.409Z,10.20
2023-01-08T01:49:57.075Z,10.20
2023-01-08T01:52:29.738Z,10.20
2023-01-08T01:55:02.879Z,10.60
2023-01-08T01:57:34.543Z,10.80
2023-01-08T02:00:09.595Z,10.90
2023-01-08T02:02:40.513Z,10.80
2023-01-08T02:05:12.008Z,10.80
2023-01-08T02:07:46.383Z,10.80
2023-01-08T02:10:20.311Z,10.60
2023-01-08T02:12:54.609Z,10.60
2023-01-08T02:15:28.329Z,10.50
2023-01-08T02:18:02.017Z,10.40
2023-01-08T02:20:35.880Z,10.60
2023-01-08T02:23:15.619Z,10.80
2023-01-08T02:26:12.675Z,10.70
2023-01-08T02:28:47.555Z,10.50
2023-01-08T02:31:19.942Z,10.30
2023-01-08T02:33:50.644Z,10.30
2023-01-08T02:36:36.272Z,10.20
2023-01-08T02:39:24.861Z,10.20
2023-01-08T02:42:07.479Z,10.20
2023-01-08T02:44:45.878Z,10.10
2023-01-08T02:47:21.529Z,10.20
2023-01-08T02:49:56.037Z,10.30
2023-01-08T02:52:29.328Z,10.40
2023-01-08T02:55:02.697Z,10.30
2023-01-08T02:57:36.096Z,10.20
2023-01-08T03:00:09.532Z,10.20
2023-01-08T03:02:42.768Z,10.20
2023-01-08T03:05:17.439Z,10.30
2023-01-08T03:07:48.174Z,10.30
2023-01-08T03:10:20.591Z,10.30
2023-01-08T03:12:55.597Z,10.20
2023-01-08T03:15:30.304Z,10.10
2023-01-08T03:18:04.267Z,10.10
2023-01-08T03:20:37.318Z,10.10
2023-01-08T03:23:10.717Z,10.00
2023-01-08T03:25:44.458Z,9.90
2023-01-08T03:28:18.992Z,9.90
2023-01-08T03:30:50.996Z,9.80
2023-01-08T03:33:23.476Z,9.70
2023-01-08T03:35:56.655Z,9.80
2023-01-08T03:38:30.701Z,9.70
2023-01-08T03:41:04.542Z,9.80
2023-01-08T03:43:35.308Z,9.80
2023-01-08T03:46:09.267Z,9.70
2023-01-08T03:48:42.344Z,9.70
2023-01-08T03:51:13.739Z,9.70
2023-01-08T03:53:44.445Z,9.70
2023-01-08T03:56:15.154Z,9.70
2023-01-08T03:58:45.837Z,9.60
2023-01-08T04:01:16.827Z,9.60
2023-01-08T04:03:47.557Z,9.50
2023-01-08T04:06:18.154Z,9.50
2023-01-08T04:08:50.775Z,9.40
2023-01-08T04:11:21.424Z,9.40
2023-01-08T04:13:54.365Z,9.30
2023-01-08T04:16:25.316Z,9.50
2023-01-08T04:18:55.953Z,9.40
2023-01-08T04:21:26.665Z,9.40
2023-01-08T04:23:57.864Z,9.30
2023-01-08T04:26:28.434Z,9.30
2023-01-08T04:28:59.011Z,9.30
2023-01-08T04:31:29.696Z,9.30
2023-01-08T04:34:00.501Z,9.40
2023-01-08T04:36:31.178Z,9.50
2023-01-08T04:39:01.820Z,9.50
2023-01-08T04:41:32.444Z,9.50
2023-01-08T04:44:03.114Z,9.50
2023-01-08T04:46:33.936Z,9.60
2023-01-08T04:49:04.759Z,9.60
2023-01-08T04:51:35.332Z,9.60
2023-01-08T04:54:06.249Z,9.70
2023-01-08T04:56:37.094Z,9.90
2023-01-08T04:59:07.726Z,10.00
2023-01-08T05:01:38.427Z,10.00
2023-01-08T05:04:09.239Z,9.80
2023-01-08T05:06:40.037Z,9.80
2023-01-08T05:09:12.034Z,9.80
2023-01-08T05:11:43.665Z,9.80
2023-01-08T05:14:14.495Z,9.70
2023-01-08T05:16:45.429Z,9.70
2023-01-08T05:19:16.264Z,9.70
2023-01-08T05:21:46.980Z,9.70
2023-01-08T05:24:18.122Z,9.70
2023-01-08T05:26:48.880Z,9.60
2023-01-08T05:29:19.452Z,9.60
2023-01-08T05:31:50.309Z,9.60
2023-01-08T05:34:21.217Z,9.50
2023-01-08T05:36:51.907Z,9.50
2023-01-08T05:39:22.613Z,9.50
2023-01-08T05:41:53.459Z,9.60
2023-01-08T05:44:24.319Z,9.50
2023-01-08T05:46:57.143Z,9.50
2023-01-08T05:49:28.370Z,9.40
2023-01-08T05:51:59.015Z,9.40
2023-01-08T05:54:29.783Z,9.30
2023-01-08T05:57:00.558Z,9.50
2023-01-08T05:59:31.263Z,9.40
2023-01-08T06:02:01.852Z,9.50
2023-01-08T06:04:32.768Z,9.50
2023-01-08T06:07:03.534Z,9.50
2023-01-08T06:09:34.357Z,9.40
2023-01-08T06:12:05.383Z,9.40
2023-01-08T06:14:36.093Z,9.40
2023-01-08T06:17:06.724Z,9.40
2023-01-08T06:19:37.599Z,9.40
2023-01-08T06:22:08.380Z,9.40
2023-01-08T06:24:39.144Z,9.40
2023-01-08T06:27:09.756Z,9.40
2023-01-08T06:29:40.457Z,9.40
2023-01-08T06:32:11.151Z,9.50
2023-01-08T06:34:41.951Z,9.50
2023-01-08T06:37:12.679Z,9.50
2023-01-08T06:39:43.489Z,9.60
2023-01-08T06:42:14.121Z,9.60
2023-01-08T06:44:44.815Z,9.50
2023-01-08T06:47:15.484Z,9.50
2023-01-08T06:49:46.301Z,9.50
2023-01-08T06:52:17.098Z,9.40
2023-01-08T06:54:47.878Z,9.40
2023-01-08T06:57:19.592Z,9.40
2023-01-08T06:59:50.584Z,9.40
2023-01-08T07:02:24.561Z,9.40
2023-01-08T07:04:54.246Z,9.30
2023-01-08T07:07:24.876Z,9.30
2023-01-08T07:09:56.346Z,9.30
2023-01-08T07:12:27.701Z,9.30
2023-01-08T07:14:59.138Z,9.30
2023-01-08T07:17:30.077Z,9.40
2023-01-08T07:20:01.328Z,9.40
2023-01-08T07:22:32.503Z,9.40
2023-01-08T07:25:05.392Z,9.20
2023-01-08T07:27:36.566Z,9.30
2023-01-08T07:30:28.260Z,9.30
2023-01-08T07:32:44.801Z,9.30
2023-01-08T07:35:16.104Z,9.30
2023-01-08T07:37:46.923Z,9.40
2023-01-08T07:40:18.322Z,9.30
2023-01-08T07:42:49.382Z,9.40
2023-01-08T07:45:21.843Z,9.40
2023-01-08T07:47:53.385Z,9.40
2023-01-08T07:50:24.319Z,9.30
2023-01-08T07:52:57.457Z,9.40
2023-01-08T07:55:28.538Z,9.40
2023-01-08T07:57:59.159Z,9.40
2023-01-08T08:00:30.415Z,9.40
2023-01-08T08:03:06.992Z,9.40
2023-01-08T08:05:38.259Z,9.40
2023-01-08T08:08:12.863Z,9.40
2023-01-08T08:10:45.156Z,9.40
2023-01-08T08:13:16.237Z,9.40
2023-01-08T08:15:47.392Z,9.40
2023-01-08T08:18:18.476Z,9.40
2023-01-08T08:20:51.089Z,9.40
2023-01-08T08:23:22.219Z,9.40
2023-01-08T08:25:53.116Z,9.40
2023-01-08T08:28:23.958Z,9.40
2023-01-08T08:30:55.160Z,9.40
2023-01-08T08:33:26.489Z,9.50
2023-01-08T08:35:57.528Z,9.50
2023-01-08T08:38:28.313Z,9.50
2023-01-08T08:40:59.453Z,9.50
2023-01-08T08:43:30.549Z,9.60
2023-01-08T08:46:01.234Z,9.60
2023-01-08T08:48:31.858Z,9.60
2023-01-08T08:51:03.026Z,9.60
2023-01-08T08:53:34.184Z,9.60
2023-01-08T08:56:05.529Z,9.60
2023-01-08T08:58:36.891Z,9.60
2023-01-08T09:03:47.878Z,9.70
2023-01-08T09:06:18.829Z,9.70
2023-01-08T09:08:49.997Z,9.80
2023-01-08T09:11:21.371Z,9.80
2023-01-08T09:13:52.547Z,9.80
2023-01-08T09:16:27.695Z,9.70
2023-01-08T09:18:59.051Z,9.70
2023-01-08T09:21:30.226Z,9.70
2023-01-08T09:24:01.516Z,9.80
2023-01-08T09:26:32.384Z,9.80
2023-01-08T09:29:03.340Z,9.80
2023-01-08T09:31:35.625Z,9.90
2023-01-08T09:34:07.908Z,9.80
2023-01-08T09:36:38.775Z,10.00
2023-01-08T09:39:10.448Z,10.10
2023-01-08T09:41:44.968Z,10.20
2023-01-08T09:44:19.098Z,10.20
2023-01-08T09:46:54.603Z,10.10
2023-01-08T09:49:29.017Z,10.30
2023-01-08T09:52:01.626Z,10.40
2023-01-08T09:54:32.944Z,10.50
2023-01-08T09:57:03.931Z,10.60
2023-01-08T09:59:34.729Z,10.80
2023-01-08T10:02:09.451Z,11.00
2023-01-08T10:04:40.778Z,11.00
2023-01-08T10:07:18.312Z,11.20
2023-01-08T10:09:50.473Z,11.20
2023-01-08T10:12:25.874Z,11.20
2023-01-08T10:14:59.729Z,11.30
2023-01-08T10:17:33.394Z,11.40
2023-01-08T10:20:04.019Z,11.40
2023-01-08T10:22:35.220Z,11.20
2023-01-08T10:25:15.482Z,11.10
2023-01-08T10:27:51.217Z,11.10
2023-01-08T10:30:24.428Z,11.20
2023-01-08T10:32:57.134Z,11.20
2023-01-08T10:38:25.310Z,11.10
2023-01-08T10:40:56.642Z,11.20
2023-01-08T10:43:47.376Z,11.20
2023-01-08T10:46:20.958Z,11.30
2023-01-08T10:48:54.709Z,11.30
2023-01-08T10:51:26.964Z,11.40
2023-01-08T10:53:59.776Z,11.50
2023-01-08T10:56:32.320Z,11.50
2023-01-08T10:59:03.306Z,11.30
2023-01-08T11:01:35.124Z,11.20
2023-01-08T11:04:07.902Z,11.10
2023-01-08T11:06:41.514Z,11.00
2023-01-08T11:09:20.540Z,11.10
2023-01-08T11:11:51.763Z,11.10
2023-01-08T11:14:26.927Z,11.10
2023-01-08T11:16:58.665Z,11.20
2023-01-08T11:19:31.936Z,11.20
2023-01-08T11:22:05.709Z,11.20
2023-01-08T11:24:39.102Z,11.20
2023-01-08T11:27:12.799Z,11.10
2023-01-08T11:29:47.936Z,11.00
2023-01-08T11:32:44.361Z,11.20
2023-01-08T11:35:19.194Z,11.20
2023-01-08T11:37:54.649Z,11.30
2023-01-08T11:40:31.999Z,11.30
2023-01-08T11:43:21.877Z,11.40
2023-01-08T11:46:13.326Z,11.50
2023-01-08T11:49:10.091Z,11.50
2023-01-08T11:51:47.764Z,11.60
2023-01-08T11:54:27.258Z,11.60
2023-01-08T11:57:08.928Z,11.60
2023-01-08T11:59:45.014Z,11.50
2023-01-08T12:05:26.716Z,11.50
2023-01-08T12:08:06.849Z,11.50
2023-01-08T12:10:48.877Z,11.50
2023-01-08T12:13:44.824Z,11.40
2023-01-08T12:16:23.475Z,11.30
2023-01-08T12:19:07.509Z,11.20
2023-01-08T12:21:42.664Z,11.10
2023-01-08T12:24:25.126Z,11.00
2023-01-08T12:26:59.937Z,11.00
2023-01-08T12:29:50.841Z,11.10
2023-01-08T12:32:30.502Z,11.00
2023-01-08T12:35:05.777Z,11.10
2023-01-08T12:37:40.842Z,11.20
2023-01-08T12:40:19.168Z,11.10
2023-01-08T12:43:00.611Z,11.20
2023-01-08T12:45:28.840Z,11.30
2023-01-08T12:48:02.742Z,11.20
2023-01-08T12:50:42.934Z,11.20
2023-01-08T12:53:19.243Z,11.20
2023-01-08T12:58:41.691Z,11.30
2023-01-08T13:01:20.935Z,11.20
2023-01-08T13:03:52.484Z,11.20
2023-01-08T13:06:24.344Z,11.20
2023-01-08T13:08:57.207Z,11.20
2023-01-08T13:11:30.580Z,11.20
2023-01-08T13:14:07.049Z,11.10
2023-01-08T13:16:40.983Z,11.10
2023-01-08T13:19:25.891Z,11.10
2023-01-08T13:21:58.431Z,11.10
2023-01-08T13:24:35.660Z,11.10
2023-01-08T13:27:31.110Z,11.20
2023-01-08T13:30:02.417Z,11.20
2023-01-08T13:32:47.033Z,11.30
2023-01-08T13:35:27.597Z,11.30
2023-01-08T13:38:17.570Z,11.30
2023-01-08T13:40:57.475Z,11.30
2023-01-08T13:43:32.235Z,11.30
2023-01-08T13:46:17.052Z,11.20
2023-01-08T13:48:54.255Z,11.20
2023-01-08T13:51:42.658Z,11.20
2023-01-08T13:54:25.829Z,11.20
2023-01-08T13:56:58.835Z,11.30
2023-01-08T13:59:40.371Z,11.30
2023-01-08T14:02:32.242Z,11.40
2023-01-08T14:05:04.653Z,11.40
2023-01-08T14:07:54.505Z,11.40
2023-01-08T14:10:26.206Z,11.40
2023-01-08T14:12:59.893Z,11.40
2023-01-08T14:15:31.765Z,11.50
2023-01-08T14:18:04.872Z,11.40
2023-01-08T14:20:38.414Z,11.50
2023-01-08T14:23:14.424Z,11.40
2023-01-08T14:25:46.939Z,11.40
2023-01-08T14:28:20.633Z,11.40
2023-01-08T14:30:53.556Z,11.40
2023-01-08T14:33:27.506Z,11.30
2023-01-08T14:35:59.725Z,11.30
2023-01-08T14:38:31.456Z,11.30
2023-01-08T14:41:06.353Z,11.30
2023-01-08T14:43:42.513Z,11.30
2023-01-08T14:46:18.768Z,11.30
2023-01-08T14:48:51.367Z,11.30
2023-01-08T14:51:27.057Z,11.30
2023-01-08T14:54:01.183Z,11.20
2023-01-08T14:56:34.119Z,11.20
2023-01-08T14:59:10.240Z,11.20
2023-01-08T15:01:42.092Z,11.20
2023-01-08T15:04:18.255Z,11.20
2023-01-08T15:06:50.210Z,11.20
2023-01-08T15:09:26.114Z,11.20
2023-01-08T15:11:59.461Z,11.20
2023-01-08T15:17:11.934Z,11.10
2023-01-08T15:19:48.596Z,11.10
2023-01-08T15:22:21.571Z,11.10
2023-01-08T15:24:59.195Z,11.00
2023-01-08T15:27:31.714Z,11.00
2023-01-08T15:30:04.262Z,11.00
2023-01-08T15:32:37.504Z,10.90
2023-01-08T15:35:16.423Z,10.80
2023-01-08T15:37:47.581Z,10.90
2023-01-08T15:40:18.279Z,10.80
2023-01-08T15:43:06.813Z,10.80
2023-01-08T15:45:39.017Z,10.80
2023-01-08T15:48:11.591Z,10.80
2023-01-08T15:50:44.463Z,10.80
2023-01-08T15:53:22.481Z,10.80
2023-01-08T15:55:53.362Z,10.80
2023-01-08T15:58:24.040Z,10.80
2023-01-08T16:00:54.732Z,10.80
2023-01-08T16:03:26.028Z,10.70
2023-01-08T16:05:56.751Z,10.70
2023-01-08T16:08:27.634Z,10.70
2023-01-08T16:10:58.394Z,10.70
2023-01-08T16:13:29.179Z,10.70
2023-01-08T16:15:59.920Z,10.70
2023-01-08T16:18:32.111Z,10.70
2023-01-08T16:21:03.508Z,10.70
2023-01-08T16:23:35.705Z,10.70
2023-01-08T16:26:09.507Z,10.70
2023-01-08T16:28:40.679Z,10.70
2023-01-08T16:31:12.074Z,10.70
2023-01-08T16:33:43.065Z,10.70
2023-01-08T16:36:14.583Z,10.70
2023-01-08T16:38:45.388Z,10.70
2023-01-08T16:41:16.239Z,10.70
2023-01-08T16:43:46.960Z,10.70
2023-01-08T16:46:18.867Z,10.70
2023-01-08T16:48:49.806Z,10.70
2023-01-08T16:51:21.434Z,10.60
2023-01-08T16:53:52.387Z,10.70
2023-01-08T16:56:23.126Z,10.60
2023-01-08T16:58:54.199Z,10.60
2023-01-08T17:01:25.144Z,10.60
2023-01-08T17:03:55.972Z,10.60
2023-01-08T17:06:27.106Z,10.70
2023-01-08T17:08:59.252Z,10.70
2023-01-08T17:11:29.945Z,10.80
2023-01-08T17:14:00.638Z,10.70
2023-01-08T17:16:31.704Z,10.70
2023-01-08T17:19:02.392Z,10.70
2023-01-08T17:21:33.828Z,10.70
2023-01-08T17:24:04.728Z,10.70
2023-01-08T17:26:35.601Z,10.70
2023-01-08T17:29:06.395Z,10.70
2023-01-08T17:31:40.526Z,10.80
2023-01-08T17:34:14.450Z,11.00
2023-01-08T17:36:45.309Z,10.90
2023-01-08T17:39:16.013Z,10.90
2023-01-08T17:42:04.523Z,10.90
2023-01-08T17:44:35.356Z,10.90
2023-01-08T17:47:06.123Z,10.90
2023-01-08T17:49:37.133Z,10.90
2023-01-08T17:52:09.455Z,10.90
2023-01-08T17:54:40.439Z,10.90
2023-01-08T17:57:11.616Z,10.90
2023-01-08T17:59:42.312Z,10.90
2023-01-08T18:02:16.084Z,10.90
2023-01-08T18:04:47.113Z,10.90
2023-01-08T18:07:18.426Z,10.90
2023-01-08T18:09:49.538Z,10.90
2023-01-08T18:12:20.400Z,10.80
2023-01-08T18:14:51.117Z,10.80
2023-01-08T18:17:21.717Z,10.80
2023-01-08T18:19:52.351Z,10.90
2023-01-08T18:22:23.142Z,10.80
2023-01-08T18:24:53.877Z,10.90
2023-01-08T18:27:24.624Z,10.80
2023-01-08T18:29:55.640Z,10.80
2023-01-08T18:32:26.422Z,10.80
2023-01-08T18:34:57.164Z,10.80
2023-01-08T18:37:28.024Z,10.80
2023-01-08T18:39:58.749Z,10.70
2023-01-08T18:42:31.044Z,10.70
2023-01-08T18:45:03.701Z,10.80
2023-01-08T18:47:34.511Z,10.80
2023-01-08T18:50:05.916Z,10.80
2023-01-08T18:52:36.852Z,10.80
2023-01-08T18:55:09.209Z,10.80
2023-01-08T18:57:40.348Z,10.80
2023-01-08T19:00:14.388Z,10.70
2023-01-08T19:02:45.371Z,10.70
2023-01-08T19:05:17.669Z,10.80
2023-01-08T19:07:48.541Z,10.70
2023-01-08T19:10:21.761Z,10.60
2023-01-08T19:12:52.637Z,10.60
2023-01-08T19:15:23.342Z,10.60
2023-01-08T19:17:54.076Z,10.50
2023-01-08T19:20:24.681Z,10.50
2023-01-08T19:22:55.945Z,10.40
2023-01-08T19:25:26.885Z,10.40
2023-01-08T19:27:57.526Z,10.40
2023-01-08T19:30:28.803Z,10.30
2023-01-08T19:32:59.528Z,10.30
2023-01-08T19:35:31.317Z,10.20
2023-01-08T19:38:01.935Z,10.20
2023-01-08T19:40:32.549Z,10.10
2023-01-08T19:43:20.582Z,10.10
2023-01-08T19:45:51.415Z,10.10
2023-01-08T19:48:22.031Z,10.10
2023-01-08T19:50:52.623Z,10.10
2023-01-08T19:53:23.245Z,10.10
2023-01-08T19:55:53.941Z,10.10
2023-01-08T19:58:26.088Z,10.10
2023-01-08T20:00:56.783Z,10.10
2023-01-08T20:03:28.034Z,10.10
2023-01-08T20:05:58.750Z,10.10
2023-01-08T20:08:29.411Z,10.10
2023-01-08T20:11:06.932Z,10.10
2023-01-08T20:13:37.759Z,10.10
2023-01-08T20:16:12.129Z,10.10
2023-01-08T20:18:43.718Z,10.00
2023-01-08T20:21:16.375Z,10.10
2023-01-08T20:23:48.180Z,10.00
2023-01-08T20:26:20.101Z,10.10
2023-01-08T20:28:51.587Z,10.10
2023-01-08T20:31:25.719Z,10.10
2023-01-08T20:33:56.777Z,10.10
2023-01-08T20:36:30.092Z,10.10
2023-01-08T20:39:05.779Z,10.10
2023-01-08T20:41:36.963Z,10.20
2023-01-08T20:44:08.404Z,10.20
2023-01-08T20:46:40.137Z,10.10
2023-01-08T20:49:13.498Z,10.10
2023-01-08T20:51:54.364Z,10.10
2023-01-08T20:54:18.618Z,10.10
2023-01-08T20:56:49.368Z,10.20
2023-01-08T20:59:20.014Z,10.10
2023-01-08T21:01:51.066Z,10.10
2023-01-08T21:04:22.123Z,10.10
2023-01-08T21:06:53.031Z,10.10
2023-01-08T21:09:23.658Z,10.10
2023-01-08T21:11:54.541Z,10.00
2023-01-08T21:14:25.154Z,10.10
2023-01-08T21:16:56.612Z,10.00
2023-01-08T21:19:27.296Z,10.00
2023-01-08T21:21:57.922Z,9.90
2023-01-08T21:24:28.585Z,9.80
2023-01-08T21:26:59.190Z,9.80
2023-01-08T21:29:29.812Z,9.70
2023-01-08T21:32:00.678Z,9.60
2023-01-08T21:34:32.286Z,9.60
2023-01-08T21:37:04.577Z,9.70
2023-01-08T21:39:35.343Z,9.60
2023-01-08T21:42:24.063Z,9.60
2023-01-08T21:45:12.081Z,9.80
2023-01-08T21:47:42.831Z,9.80
2023-01-08T21:50:14.883Z,9.80
2023-01-08T21:53:02.976Z,9.80
2023-01-08T21:55:33.799Z,9.70
2023-01-08T21:58:04.524Z,9.60
2023-01-08T22:00:35.297Z,9.70
2023-01-08T22:03:06.067Z,9.70
2023-01-08T22:05:36.747Z,9.70
2023-01-08T22:08:08.880Z,9.70
2023-01-08T22:10:40.990Z,9.70
2023-01-08T22:13:11.657Z,9.70
2023-01-08T22:15:42.455Z,9.60
2023-01-08T22:18:13.013Z,9.70
2023-01-08T22:20:43.800Z,9.50
2023-01-08T22:23:14.428Z,9.60
2023-01-08T22:25:47.213Z,9.70
2023-01-08T22:28:17.793Z,9.70
2023-01-08T22:30:48.418Z,9.80
2023-01-08T22:33:19.677Z,9.80
2023-01-08T22:35:50.458Z,9.80
2023-01-08T22:38:21.040Z,9.80
2023-01-08T22:40:51.889Z,9.80
2023-01-08T22:43:22.516Z,9.80
2023-01-08T22:45:56.019Z,9.90
2023-01-08T22:48:27.857Z,9.90
2023-01-08T22:50:59.949Z,9.70
2023-01-08T22:53:30.573Z,9.60
2023-01-08T22:56:01.269Z,9.50
2023-01-08T22:58:31.903Z,9.50
2023-01-08T23:01:02.458Z,9.50
2023-01-08T23:03:33.181Z,9.40
2023-01-08T23:06:05.013Z,9.30
2023-01-08T23:08:35.769Z,9.20
2023-01-08T23:11:07.215Z,9.30
2023-01-08T23:13:38.199Z,9.30
2023-01-08T23:16:11.071Z,9.40
2023-01-08T23:18:42.556Z,9.40
2023-01-08T23:21:17.077Z,9.40
2023-01-08T23:23:48.689Z,9.50
2023-01-08T23:26:21.240Z,9.60
2023-01-08T23:28:53.229Z,9.70
2023-01-08T23:31:26.431Z,9.80
2023-01-08T23:33:57.809Z,9.90
2023-01-08T23:36:28.470Z,10.00
2023-01-08T23:38:59.547Z,10.00
2023-01-08T23:41:34.554Z,10.00
2023-01-08T23:44:07.228Z,10.00
2023-01-08T23:46:38.560Z,10.10
2023-01-08T23:49:09.293Z,10.10
2023-01-08T23:51:41.828Z,10.10
2023-01-08T23:54:13.471Z,10.10
2023-01-08T23:56:44.495Z,10.10
2023-01-08T23:59:15.984Z,10.10
